createdAt,value
2018-09-20T00:00:26.846Z,70.29
2018-09-20T00:01:26.829Z,70.09
2018-09-20T00:02:26.825Z,70.67
2018-09-20T00:03:26.814Z,70.29
2018-09-20T00:04:26.803Z,70.29
2018-09-20T00:05:26.797Z,70.29
2018-09-20T00:06:26.791Z,71.15
2018-09-20T00:07:26.774Z,70.57
2018-09-20T00:08:26.764Z,71.15
2018-09-20T00:09:26.754Z,70.76
2018-09-20T00:10:26.755Z,71.34
2018-09-20T00:11:26.741Z,70.38
2018-09-20T00:12:26.729Z,70.76
2018-09-20T00:13:26.719Z,70.86
2018-09-20T00:14:26.711Z,70.73
2018-09-20T00:15:26.703Z,71.59
2018-09-20T00:16:26.700Z,71.69
2018-09-20T00:17:26.690Z,71.21
2018-09-20T00:18:26.679Z,71.11
2018-09-20T00:19:26.671Z,71.21
2018-09-20T00:20:26.659Z,71.69
2018-09-20T00:21:26.644Z,72.17
2018-09-20T00:22:26.642Z,71.94
2018-09-20T00:23:26.627Z,72.07
2018-09-20T00:24:26.625Z,72.13
2018-09-20T00:25:26.610Z,71.50
2018-09-20T00:26:26.601Z,71.59
2018-09-20T00:27:26.592Z,71.69
2018-09-20T00:28:26.585Z,71.59
2018-09-20T00:29:26.579Z,71.98
2018-09-20T00:30:26.564Z,71.84
2018-09-20T00:31:26.563Z,72.55
2018-09-20T00:32:26.552Z,71.59
2018-09-20T00:33:26.538Z,71.66
2018-09-20T00:34:26.525Z,71.27
2018-09-20T00:35:26.522Z,70.89
2018-09-20T00:36:26.514Z,70.15
2018-09-20T00:37:26.500Z,71.31
2018-09-20T00:38:26.485Z,70.35
2018-09-20T00:39:26.481Z,71.27
2018-09-20T00:40:26.475Z,70.21
2018-09-20T00:41:26.468Z,70.44
2018-09-20T00:42:26.458Z,70.21
2018-09-20T00:43:26.447Z,70.70
2018-09-20T00:44:26.436Z,71.17
2018-09-20T00:45:26.429Z,71.17
2018-09-20T00:46:26.418Z,71.37
2018-09-20T00:47:26.407Z,70.70
2018-09-20T00:48:26.402Z,70.70
2018-09-20T00:49:26.390Z,70.89
2018-09-20T00:50:26.379Z,70.98
2018-09-20T00:51:26.386Z,71.17
2018-09-20T00:52:26.364Z,71.46
2018-09-20T00:53:26.355Z,71.75
2018-09-20T00:54:26.347Z,71.17
2018-09-20T00:55:26.333Z,71.17
2018-09-20T00:56:26.326Z,71.46
2018-09-20T00:57:26.317Z,72.52
2018-09-20T00:58:26.308Z,72.13
2018-09-20T00:59:26.300Z,72.23
2018-09-20T01:00:26.334Z,72.32
2018-09-20T01:01:26.285Z,72.61
2018-09-20T01:02:26.268Z,72.80
2018-09-20T01:03:26.264Z,71.94
2018-09-20T01:04:26.251Z,71.94
2018-09-20T01:05:26.243Z,72.23
2018-09-20T01:06:26.235Z,71.94
2018-09-20T01:07:26.222Z,72.71
2018-09-20T01:08:26.212Z,72.13
2018-09-20T01:09:26.202Z,72.42
2018-09-20T01:10:26.192Z,72.13
2018-09-20T01:11:26.186Z,72.23
2018-09-20T01:12:26.172Z,71.27
2018-09-20T01:13:26.166Z,70.50
2018-09-20T01:14:26.154Z,71.27
2018-09-20T01:15:26.143Z,71.56
2018-09-20T01:16:26.148Z,71.17
2018-09-20T01:17:26.135Z,71.66
2018-09-20T01:18:26.117Z,71.94
2018-09-20T01:19:26.104Z,71.46
2018-09-20T01:20:26.101Z,71.17
2018-09-20T01:21:26.091Z,70.98
2018-09-20T01:22:26.079Z,70.70
2018-09-20T01:23:26.074Z,70.60
2018-09-20T01:24:26.062Z,70.70
2018-09-20T01:25:26.054Z,71.37
2018-09-20T01:26:26.046Z,71.56
2018-09-20T01:27:26.033Z,72.32
2018-09-20T01:28:26.031Z,72.03
2018-09-20T01:29:26.010Z,72.32
2018-09-20T01:30:26.004Z,72.42
2018-09-20T01:31:25.997Z,71.91
2018-09-20T01:32:25.987Z,72.03
2018-09-20T01:33:25.977Z,72.61
2018-09-20T01:34:25.965Z,72.96
2018-09-20T01:35:26.013Z,73.05
2018-09-20T01:36:25.981Z,72.77
2018-09-20T01:37:25.951Z,72.58
2018-09-20T01:38:25.928Z,72.09
2018-09-20T01:39:25.924Z,72.29
2018-09-20T01:40:25.910Z,72.09
2018-09-20T01:41:25.904Z,72.19
2018-09-20T01:42:25.894Z,72.58
2018-09-20T01:43:25.879Z,72.96
2018-09-20T01:44:25.870Z,73.05
2018-09-20T01:45:25.860Z,72.77
2018-09-20T01:46:25.858Z,72.96
2018-09-20T01:47:25.843Z,72.48
2018-09-20T01:48:25.836Z,72.67
2018-09-20T01:49:25.826Z,73.05
2018-09-20T01:50:25.821Z,70.09
2018-09-20T01:51:25.805Z,70.09
2018-09-20T01:52:25.799Z,70.47
2018-09-20T01:53:25.785Z,70.95
2018-09-20T01:54:25.779Z,71.42
2018-09-20T01:55:25.768Z,71.71
2018-09-20T01:56:25.762Z,72.09
2018-09-20T01:57:25.749Z,72.29
2018-09-20T01:58:25.740Z,72.19
2018-09-20T01:59:25.730Z,72.00
2018-09-20T02:00:25.722Z,72.67
2018-09-20T02:01:25.708Z,72.38
2018-09-20T02:02:25.702Z,72.86
2018-09-20T02:03:25.692Z,72.38
2018-09-20T02:04:25.684Z,72.58
2018-09-20T02:05:25.669Z,72.00
2018-09-20T02:06:25.663Z,72.48
2018-09-20T02:07:25.652Z,72.00
2018-09-20T02:08:25.643Z,71.71
2018-09-20T02:09:25.659Z,71.23
2018-09-20T02:10:25.618Z,70.95
2018-09-20T02:11:25.623Z,71.14
2018-09-20T02:12:25.603Z,70.85
2018-09-20T02:13:25.589Z,70.37
2018-09-20T02:14:25.583Z,70.09
2018-09-20T02:15:25.579Z,70.66
2018-09-20T02:16:25.565Z,70.09
2018-09-20T02:17:25.559Z,70.85
2018-09-20T02:18:25.545Z,71.52
2018-09-20T02:19:25.537Z,70.47
2018-09-20T02:20:25.532Z,70.85
2018-09-20T02:21:25.516Z,70.66
2018-09-20T02:22:25.506Z,70.43
2018-09-20T02:23:25.498Z,71.11
2018-09-20T02:24:25.492Z,71.14
2018-09-20T02:25:25.479Z,71.71
2018-09-20T02:26:25.474Z,72.16
2018-09-20T02:27:25.467Z,71.91
2018-09-20T02:28:25.445Z,72.00
2018-09-20T02:29:25.450Z,72.38
2018-09-20T02:30:25.433Z,72.19
2018-09-20T02:31:25.471Z,71.71
2018-09-20T02:32:25.412Z,71.23
2018-09-20T02:33:25.410Z,71.23
2018-09-20T02:34:25.395Z,71.14
2018-09-20T02:35:25.379Z,70.47
2018-09-20T02:36:25.371Z,70.47
2018-09-20T02:37:25.360Z,70.66
2018-09-20T02:38:25.354Z,70.95
2018-09-20T02:39:25.344Z,71.23
2018-09-20T02:40:25.392Z,71.23
2018-09-20T02:41:25.321Z,71.42
2018-09-20T02:42:25.313Z,71.23
2018-09-20T02:43:25.312Z,71.23
2018-09-20T02:44:25.307Z,71.23
2018-09-20T02:45:25.288Z,71.52
2018-09-20T02:46:25.277Z,71.33
2018-09-20T02:47:25.269Z,71.71
2018-09-20T02:48:25.256Z,71.23
2018-09-20T02:49:25.244Z,71.23
2018-09-20T02:50:25.235Z,71.23
2018-09-20T02:51:25.227Z,71.42
2018-09-20T02:52:25.218Z,71.23
2018-09-20T02:53:25.206Z,71.04
2018-09-20T02:54:25.198Z,71.23
2018-09-20T02:55:25.186Z,71.23
2018-09-20T02:56:25.180Z,70.95
2018-09-20T02:57:25.171Z,70.85
2018-09-20T02:58:25.157Z,70.66
2018-09-20T02:59:25.152Z,70.56
2018-09-20T03:00:25.137Z,70.95
2018-09-20T03:01:25.127Z,71.33
2018-09-20T03:02:25.132Z,71.23
2018-09-20T03:03:25.116Z,71.04
2018-09-20T03:04:25.099Z,70.95
2018-09-20T03:05:25.090Z,70.28
2018-09-20T03:06:25.086Z,69.80
2018-09-20T03:07:25.072Z,68.94
2018-09-20T03:08:25.060Z,68.55
2018-09-20T03:09:25.059Z,68.65
2018-09-20T03:10:25.045Z,68.94
2018-09-20T03:11:25.030Z,69.32
2018-09-20T03:12:25.021Z,69.80
2018-09-20T03:13:25.009Z,69.80
2018-09-20T03:14:25.000Z,69.80
2018-09-20T03:15:24.999Z,69.99
2018-09-20T03:16:24.987Z,69.99
2018-09-20T03:17:24.979Z,69.70
2018-09-20T03:18:24.965Z,69.99
2018-09-20T03:19:24.960Z,70.37
2018-09-20T03:20:24.945Z,70.66
2018-09-20T03:21:24.939Z,70.66
2018-09-20T03:22:24.931Z,71.14
2018-09-20T03:23:24.931Z,69.13
2018-09-20T03:24:24.904Z,67.50
2018-09-20T03:25:24.894Z,68.07
2018-09-20T03:26:24.886Z,67.69
2018-09-20T03:27:24.877Z,68.17
2018-09-20T03:28:24.866Z,68.46
2018-09-20T03:29:24.857Z,68.65
2018-09-20T03:30:24.951Z,69.70
2018-09-20T03:31:24.842Z,70.18
2018-09-20T03:32:24.827Z,69.13
2018-09-20T03:33:24.819Z,69.13
2018-09-20T03:34:24.811Z,69.32
2018-09-20T03:35:24.796Z,69.00
2018-09-20T03:36:24.789Z,69.67
2018-09-20T03:37:24.782Z,70.47
2018-09-20T03:38:24.782Z,70.05
2018-09-20T03:39:24.764Z,70.34
2018-09-20T03:40:24.755Z,70.15
2018-09-20T03:41:24.741Z,70.05
2018-09-20T03:42:24.725Z,70.43
2018-09-20T03:43:24.725Z,69.95
2018-09-20T03:44:24.710Z,70.72
2018-09-20T03:45:24.703Z,70.62
2018-09-20T03:46:24.693Z,70.62
2018-09-20T03:47:24.682Z,70.62
2018-09-20T03:48:24.673Z,70.62
2018-09-20T03:49:24.667Z,70.81
2018-09-20T03:50:24.652Z,70.72
2018-09-20T03:51:24.638Z,70.24
2018-09-20T03:52:24.633Z,70.43
2018-09-20T03:53:24.616Z,69.95
2018-09-20T03:54:24.610Z,69.57
2018-09-20T03:55:24.601Z,69.09
2018-09-20T03:56:24.591Z,68.90
2018-09-20T03:57:24.581Z,68.90
2018-09-20T03:58:24.575Z,69.19
2018-09-20T03:59:24.563Z,69.67
2018-09-20T04:00:24.557Z,70.43
2018-09-20T04:01:24.544Z,69.38
2018-09-20T04:02:24.527Z,69.09
2018-09-20T04:03:24.524Z,69.57
2018-09-20T04:04:24.514Z,69.95
2018-09-20T04:05:24.504Z,70.40
2018-09-20T04:06:24.488Z,70.50
2018-09-20T04:07:24.482Z,70.30
2018-09-20T04:08:24.474Z,70.40
2018-09-20T04:09:24.458Z,70.30
2018-09-20T04:10:24.501Z,70.62
2018-09-20T04:11:24.442Z,70.62
2018-09-20T04:12:24.433Z,71.36
2018-09-20T04:13:24.425Z,71.26
2018-09-20T04:14:24.413Z,69.48
2018-09-20T04:15:24.407Z,69.06
2018-09-20T04:16:24.399Z,69.54
2018-09-20T04:17:24.381Z,69.44
2018-09-20T04:18:24.384Z,70.21
2018-09-20T04:19:24.369Z,70.11
2018-09-20T04:20:24.355Z,70.50
2018-09-20T04:21:24.351Z,70.59
2018-09-20T04:22:24.333Z,70.87
2018-09-20T04:23:24.329Z,70.50
2018-09-20T04:24:24.327Z,70.01
2018-09-20T04:25:24.305Z,69.92
2018-09-20T04:26:24.291Z,70.11
2018-09-20T04:27:24.284Z,70.21
2018-09-20T04:28:24.277Z,70.40
2018-09-20T04:29:24.265Z,70.30
2018-09-20T04:30:24.252Z,69.82
2018-09-20T04:31:24.248Z,69.54
2018-09-20T04:32:24.230Z,70.11
2018-09-20T04:33:24.220Z,70.97
2018-09-20T04:34:24.211Z,71.07
2018-09-20T04:35:24.208Z,70.78
2018-09-20T04:36:24.195Z,70.50
2018-09-20T04:37:24.179Z,70.01
2018-09-20T04:38:24.175Z,69.82
2018-09-20T04:39:24.161Z,69.54
2018-09-20T04:40:24.153Z,69.92
2018-09-20T04:41:24.143Z,70.30
2018-09-20T04:42:24.133Z,70.50
2018-09-20T04:43:24.125Z,69.92
2018-09-20T04:44:24.117Z,70.11
2018-09-20T04:45:24.100Z,70.11
2018-09-20T04:46:24.095Z,70.11
2018-09-20T04:47:24.079Z,70.59
2018-09-20T04:48:24.077Z,70.68
2018-09-20T04:49:24.060Z,70.68
2018-09-20T04:50:24.051Z,70.21
2018-09-20T04:51:24.046Z,70.59
2018-09-20T04:52:24.032Z,71.16
2018-09-20T04:53:24.069Z,70.30
2018-09-20T04:54:24.012Z,69.82
2018-09-20T04:55:24.003Z,69.73
2018-09-20T04:56:23.997Z,69.73
2018-09-20T04:57:23.981Z,69.92
2018-09-20T04:58:23.968Z,70.21
2018-09-20T04:59:23.959Z,69.82
2018-09-20T05:00:23.956Z,70.50
2018-09-20T05:01:23.950Z,70.68
2018-09-20T05:02:23.936Z,70.40
2018-09-20T05:03:23.927Z,70.59
2018-09-20T05:04:23.911Z,70.78
2018-09-20T05:05:23.900Z,70.68
2018-09-20T05:06:23.894Z,70.40
2018-09-20T05:07:23.877Z,70.30
2018-09-20T05:08:23.869Z,70.21
2018-09-20T05:09:23.908Z,70.11
2018-09-20T05:10:23.851Z,70.11
2018-09-20T05:11:23.838Z,70.01
2018-09-20T05:12:23.832Z,69.64
2018-09-20T05:13:23.821Z,69.06
2018-09-20T05:14:23.815Z,68.01
2018-09-20T05:15:23.802Z,68.49
2018-09-20T05:16:23.792Z,68.77
2018-09-20T05:17:23.775Z,68.96
2018-09-20T05:18:23.774Z,69.92
2018-09-20T05:19:23.758Z,69.64
2018-09-20T05:20:23.828Z,69.25
2018-09-20T05:21:23.742Z,69.73
2018-09-20T05:22:23.733Z,69.44
2018-09-20T05:23:23.721Z,69.64
2018-09-20T05:24:23.709Z,68.58
2018-09-20T05:25:23.698Z,68.77
2018-09-20T05:26:23.689Z,69.15
2018-09-20T05:27:23.675Z,69.64
2018-09-20T05:28:23.669Z,69.35
2018-09-20T05:29:23.658Z,69.92
2018-09-20T05:30:23.648Z,69.82
2018-09-20T05:31:23.643Z,70.01
2018-09-20T05:32:23.622Z,70.50
2018-09-20T05:33:23.658Z,70.40
2018-09-20T05:34:23.608Z,68.96
2018-09-20T05:35:23.614Z,69.35
2018-09-20T05:36:23.587Z,69.54
2018-09-20T05:37:23.578Z,69.73
2018-09-20T05:38:23.573Z,70.59
2018-09-20T05:39:23.557Z,68.77
2018-09-20T05:40:23.545Z,69.73
2018-09-20T05:41:23.535Z,70.01
2018-09-20T05:42:23.527Z,69.92
2018-09-20T05:43:23.528Z,70.11
2018-09-20T05:44:23.504Z,70.01
2018-09-20T05:45:23.496Z,70.50
2018-09-20T05:46:23.488Z,70.40
2018-09-20T05:47:23.477Z,69.92
2018-09-20T05:48:23.467Z,70.11
2018-09-20T05:49:23.453Z,70.30
2018-09-20T05:50:23.441Z,70.01
2018-09-20T05:51:23.437Z,70.01
2018-09-20T05:52:23.424Z,70.11
2018-09-20T05:53:23.414Z,70.40
2018-09-20T05:54:23.405Z,70.40
2018-09-20T05:55:23.391Z,70.59
2018-09-20T05:56:23.383Z,70.50
2018-09-20T05:57:23.375Z,71.16
2018-09-20T05:58:23.366Z,70.59
2018-09-20T05:59:23.406Z,70.50
2018-09-20T06:00:23.348Z,70.21
2018-09-20T06:01:23.328Z,70.30
2018-09-20T06:02:23.322Z,69.92
2018-09-20T06:03:23.314Z,70.30
2018-09-20T06:04:23.304Z,71.07
2018-09-20T06:05:23.290Z,70.11
2018-09-20T06:06:23.284Z,70.59
2018-09-20T06:07:23.271Z,71.26
2018-09-20T06:08:23.258Z,71.45
2018-09-20T06:09:23.255Z,71.45
2018-09-20T06:10:23.240Z,70.59
2018-09-20T06:11:23.229Z,70.97
2018-09-20T06:12:23.217Z,70.59
2018-09-20T06:13:23.248Z,70.59
2018-09-20T06:14:23.197Z,70.78
2018-09-20T06:15:23.184Z,71.64
2018-09-20T06:16:23.181Z,71.16
2018-09-20T06:17:23.168Z,70.87
2018-09-20T06:18:23.155Z,71.26
2018-09-20T06:19:23.147Z,70.50
2018-09-20T06:20:23.141Z,70.59
2018-09-20T06:21:23.126Z,70.50
2018-09-20T06:22:23.120Z,69.92
2018-09-20T06:23:23.109Z,70.78
2018-09-20T06:24:23.097Z,71.26
2018-09-20T06:25:23.088Z,71.16
2018-09-20T06:26:23.081Z,71.26
2018-09-20T06:27:23.067Z,71.26
2018-09-20T06:28:23.060Z,71.55
2018-09-20T06:29:23.047Z,71.83
2018-09-20T06:30:23.036Z,71.58
2018-09-20T06:31:23.025Z,70.97
2018-09-20T06:32:23.017Z,70.59
2018-09-20T06:33:23.009Z,71.20
2018-09-20T06:34:22.993Z,71.07
2018-09-20T06:35:22.988Z,70.91
2018-09-20T06:36:22.977Z,69.92
2018-09-20T06:37:22.970Z,70.53
2018-09-20T06:38:22.959Z,70.43
2018-09-20T06:39:22.946Z,69.92
2018-09-20T06:40:22.941Z,70.15
2018-09-20T06:41:22.924Z,70.62
2018-09-20T06:42:22.910Z,69.38
2018-09-20T06:43:22.905Z,68.62
2018-09-20T06:44:22.895Z,69.38
2018-09-20T06:45:22.883Z,69.86
2018-09-20T06:46:22.876Z,70.24
2018-09-20T06:47:22.868Z,70.05
2018-09-20T06:48:22.860Z,70.43
2018-09-20T06:49:22.843Z,71.04
2018-09-20T06:50:22.856Z,70.85
2018-09-20T06:51:22.822Z,71.14
2018-09-20T06:52:22.816Z,70.66
2018-09-20T06:53:22.807Z,70.56
2018-09-20T06:54:22.792Z,70.28
2018-09-20T06:55:22.785Z,69.74
2018-09-20T06:56:22.781Z,69.07
2018-09-20T06:57:22.762Z,69.07
2018-09-20T06:58:22.757Z,68.97
2018-09-20T06:59:22.749Z,68.72
2018-09-20T07:00:22.736Z,68.91
2018-09-20T07:01:22.723Z,68.52
2018-09-20T07:02:22.718Z,68.14
2018-09-20T07:03:22.786Z,68.33
2018-09-20T07:04:22.702Z,68.14
2018-09-20T07:05:22.684Z,68.18
2018-09-20T07:06:22.680Z,67.79
2018-09-20T07:07:22.668Z,67.32
2018-09-20T07:08:22.661Z,67.60
2018-09-20T07:09:22.649Z,66.93
2018-09-20T07:10:22.637Z,66.74
2018-09-20T07:11:22.625Z,66.55
2018-09-20T07:12:22.623Z,67.06
2018-09-20T07:13:22.609Z,66.19
2018-09-20T07:14:22.607Z,66.49
2018-09-20T07:15:22.598Z,66.58
2018-09-20T07:16:22.589Z,66.00
2018-09-20T07:17:22.570Z,65.81
2018-09-20T07:18:22.564Z,65.27
2018-09-20T07:19:22.554Z,65.08
2018-09-20T07:20:22.548Z,64.50
2018-09-20T07:21:22.538Z,64.31
2018-09-20T07:22:22.528Z,64.31
2018-09-20T07:23:22.518Z,64.12
2018-09-20T07:24:22.509Z,63.67
2018-09-20T07:25:22.577Z,63.19
2018-09-20T07:26:22.493Z,62.99
2018-09-20T07:27:22.486Z,63.96
2018-09-20T07:28:22.476Z,63.28
2018-09-20T07:29:22.466Z,63.57
2018-09-20T07:30:22.458Z,63.76
2018-09-20T07:31:22.447Z,63.86
2018-09-20T07:32:22.435Z,63.70
2018-09-20T07:33:22.425Z,62.84
2018-09-20T07:34:22.417Z,63.12
2018-09-20T07:35:22.411Z,63.22
2018-09-20T07:36:22.400Z,63.12
2018-09-20T07:37:22.393Z,62.26
2018-09-20T07:38:22.392Z,62.45
2018-09-20T07:39:22.386Z,62.55
2018-09-20T07:40:22.368Z,62.10
2018-09-20T07:41:22.360Z,61.81
2018-09-20T07:42:22.352Z,61.43
2018-09-20T07:43:22.358Z,61.61
2018-09-20T07:44:22.336Z,61.33
2018-09-20T07:45:22.324Z,62.19
2018-09-20T07:46:22.320Z,62.48
2018-09-20T07:47:22.309Z,62.29
2018-09-20T07:48:22.300Z,63.25
2018-09-20T07:49:22.295Z,63.18
2018-09-20T07:50:22.283Z,62.99
2018-09-20T07:51:22.273Z,62.51
2018-09-20T07:52:22.259Z,62.99
2018-09-20T07:53:22.261Z,62.23
2018-09-20T07:54:22.248Z,62.71
2018-09-20T07:55:22.240Z,62.23
2018-09-20T07:56:22.241Z,62.41
2018-09-20T07:57:22.224Z,62.51
2018-09-20T07:58:22.218Z,62.80
2018-09-20T07:59:22.217Z,62.03
2018-09-20T08:00:22.205Z,62.71
2018-09-20T08:01:22.194Z,62.71
2018-09-20T08:02:22.183Z,62.54
2018-09-20T08:03:22.182Z,62.54
2018-09-20T08:04:22.176Z,62.26
2018-09-20T08:05:22.158Z,62.26
2018-09-20T08:06:22.148Z,62.45
2018-09-20T08:07:22.147Z,62.26
2018-09-20T08:08:22.140Z,62.16
2018-09-20T08:09:22.128Z,62.45
2018-09-20T08:10:22.122Z,61.90
2018-09-20T08:11:22.109Z,62.48
2018-09-20T08:12:22.108Z,62.38
2018-09-20T08:13:22.101Z,62.77
2018-09-20T08:14:22.091Z,62.29
2018-09-20T08:15:22.079Z,61.52
2018-09-20T08:16:22.073Z,62.00
2018-09-20T08:17:22.065Z,61.90
2018-09-20T08:18:22.059Z,61.83
2018-09-20T08:19:22.054Z,61.55
2018-09-20T08:20:22.046Z,61.74
2018-09-20T08:21:22.047Z,62.03
2018-09-20T08:22:22.030Z,61.83
2018-09-20T08:23:22.020Z,60.03
2018-09-20T08:24:22.016Z,61.29
2018-09-20T08:25:22.005Z,61.00
2018-09-20T08:26:21.994Z,60.42
2018-09-20T08:27:21.987Z,61.58
2018-09-20T08:28:21.985Z,61.77
2018-09-20T08:29:21.975Z,60.71
2018-09-20T08:30:21.973Z,60.61
2018-09-20T08:31:21.966Z,60.71
2018-09-20T08:32:21.955Z,59.58
2018-09-20T08:33:21.942Z,60.74
2018-09-20T08:34:21.941Z,59.58
2018-09-20T08:35:21.935Z,58.42
2018-09-20T08:36:21.922Z,58.04
2018-09-20T08:37:21.979Z,56.81
2018-09-20T08:38:21.907Z,56.49
2018-09-20T08:39:21.907Z,56.40
2018-09-20T08:40:21.891Z,56.72
2018-09-20T08:41:21.890Z,57.68
2018-09-20T08:42:21.930Z,58.42
2018-09-20T08:43:21.877Z,58.72
2018-09-20T08:44:21.872Z,57.49
2018-09-20T08:45:21.861Z,57.29
2018-09-20T08:46:21.853Z,57.49
2018-09-20T08:47:21.849Z,57.87
2018-09-20T08:48:21.842Z,55.36
2018-09-20T08:49:21.840Z,53.25
2018-09-20T08:50:21.821Z,51.22
2018-09-20T08:51:21.818Z,51.41
2018-09-20T08:52:21.813Z,50.84
2018-09-20T08:53:21.803Z,51.80
2018-09-20T08:54:21.794Z,53.05
2018-09-20T08:55:21.793Z,54.02
2018-09-20T08:56:21.783Z,55.18
2018-09-20T08:57:21.823Z,54.40
2018-09-20T08:58:21.769Z,54.60
2018-09-20T08:59:21.766Z,55.98
2018-09-20T09:00:21.757Z,54.91
2018-09-20T09:01:21.750Z,55.76
2018-09-20T09:02:21.746Z,55.20
2018-09-20T09:03:21.741Z,54.14
2018-09-20T09:04:21.738Z,55.49
2018-09-20T09:05:21.727Z,55.18
2018-09-20T09:06:21.717Z,55.10
2018-09-20T09:07:21.714Z,55.78
2018-09-20T09:08:21.705Z,55.88
2018-09-20T09:09:21.701Z,55.88
2018-09-20T09:10:21.691Z,53.08
2018-09-20T09:11:21.683Z,53.66
2018-09-20T09:12:21.680Z,53.75
2018-09-20T09:13:21.669Z,52.59
2018-09-20T09:14:21.668Z,50.96
2018-09-20T09:15:21.655Z,52.21
2018-09-20T09:16:21.653Z,52.40
2018-09-20T09:17:21.647Z,51.92
2018-09-20T09:18:21.636Z,52.43
2018-09-20T09:19:21.634Z,51.95
2018-09-20T09:20:21.627Z,51.95
2018-09-20T09:21:21.619Z,51.56
2018-09-20T09:22:21.613Z,50.50
2018-09-20T09:23:21.608Z,52.81
2018-09-20T09:24:21.601Z,53.23
2018-09-20T09:25:21.600Z,51.10
2018-09-20T09:26:21.588Z,49.46
2018-09-20T09:27:21.588Z,49.17
2018-09-20T09:28:21.575Z,50.04
2018-09-20T09:29:21.568Z,50.13
2018-09-20T09:30:21.568Z,50.13
2018-09-20T09:31:21.556Z,49.27
2018-09-20T09:32:21.553Z,48.97
2018-09-20T09:33:21.540Z,48.01
2018-09-20T09:34:21.538Z,47.72
2018-09-20T09:35:21.534Z,47.53
2018-09-20T09:36:21.532Z,47.81
2018-09-20T09:37:21.519Z,48.39
2018-09-20T09:38:21.518Z,47.91
2018-09-20T09:39:21.509Z,48.01
2018-09-20T09:40:21.513Z,49.68
2018-09-20T09:41:21.495Z,49.97
2018-09-20T09:42:21.490Z,48.71
2018-09-20T09:43:21.478Z,47.26
2018-09-20T09:44:21.480Z,47.65
2018-09-20T09:45:21.469Z,47.45
2018-09-20T09:46:21.462Z,48.42
2018-09-20T09:47:21.459Z,47.26
2018-09-20T09:48:21.453Z,46.78
2018-09-20T09:49:21.447Z,46.78
2018-09-20T09:50:21.445Z,46.97
2018-09-20T09:51:21.436Z,47.36
2018-09-20T09:52:21.430Z,50.16
2018-09-20T09:53:21.426Z,49.87
2018-09-20T09:54:21.444Z,47.58
2018-09-20T09:55:21.425Z,45.35
2018-09-20T09:56:21.406Z,43.99
2018-09-20T09:57:21.400Z,43.41
2018-09-20T09:58:21.398Z,43.82
2018-09-20T09:59:21.388Z,44.98
2018-09-20T10:00:21.383Z,45.06
2018-09-20T10:01:21.374Z,45.64
2018-09-20T10:02:21.372Z,44.79
2018-09-20T10:03:21.370Z,45.18
2018-09-20T10:04:21.362Z,44.38
2018-09-20T10:05:21.354Z,43.34
2018-09-20T10:06:21.353Z,44.40
2018-09-20T10:07:21.450Z,44.70
2018-09-20T10:08:21.337Z,44.31
2018-09-20T10:09:21.330Z,43.05
2018-09-20T10:10:21.327Z,44.02
2018-09-20T10:11:21.324Z,43.82
2018-09-20T10:12:21.319Z,43.73
2018-09-20T10:13:21.393Z,44.09
2018-09-20T10:14:21.304Z,44.02
2018-09-20T10:15:21.297Z,45.76
2018-09-20T10:16:21.296Z,44.96
2018-09-20T10:17:21.284Z,44.21
2018-09-20T10:18:21.284Z,44.89
2018-09-20T10:19:21.274Z,46.92
2018-09-20T10:20:21.269Z,45.95
2018-09-20T10:21:21.267Z,45.08
2018-09-20T10:22:21.257Z,45.18
2018-09-20T10:23:21.255Z,45.08
2018-09-20T10:24:21.244Z,44.40
2018-09-20T10:25:21.243Z,44.12
2018-09-20T10:26:21.239Z,45.49
2018-09-20T10:27:21.232Z,45.98
2018-09-20T10:28:21.226Z,45.68
2018-09-20T10:29:21.221Z,45.68
2018-09-20T10:30:21.222Z,45.20
2018-09-20T10:31:21.264Z,45.88
2018-09-20T10:32:21.210Z,45.68
2018-09-20T10:33:21.200Z,46.26
2018-09-20T10:34:21.198Z,43.65
2018-09-20T10:35:21.189Z,43.17
2018-09-20T10:36:21.188Z,42.40
2018-09-20T10:37:21.183Z,42.59
2018-09-20T10:38:21.173Z,44.45
2018-09-20T10:39:21.168Z,44.26
2018-09-20T10:40:21.166Z,45.03
2018-09-20T10:41:21.158Z,41.35
2018-09-20T10:42:21.156Z,40.58
2018-09-20T10:43:21.145Z,43.77
2018-09-20T10:44:21.139Z,44.54
2018-09-20T10:45:21.139Z,43.12
2018-09-20T10:46:21.133Z,43.50
2018-09-20T10:47:21.174Z,44.18
2018-09-20T10:48:21.125Z,42.34
2018-09-20T10:49:21.116Z,37.98
2018-09-20T10:50:21.114Z,38.95
2018-09-20T10:51:21.107Z,40.21
2018-09-20T10:52:21.104Z,39.92
2018-09-20T10:53:21.095Z,40.99
2018-09-20T10:54:21.091Z,39.72
2018-09-20T10:55:21.088Z,38.56
2018-09-20T10:56:21.083Z,39.53
2018-09-20T10:57:21.077Z,40.03
2018-09-20T10:58:21.073Z,41.68
2018-09-20T10:59:21.068Z,38.48
2018-09-20T11:00:21.072Z,38.78
2018-09-20T11:01:21.058Z,37.81
2018-09-20T11:02:21.058Z,37.71
2018-09-20T11:03:21.083Z,38.68
2018-09-20T11:04:21.049Z,39.94
2018-09-20T11:05:21.041Z,38.78
2018-09-20T11:06:21.037Z,39.55
2018-09-20T11:07:21.035Z,38.58
2018-09-20T11:08:21.023Z,39.74
2018-09-20T11:09:21.021Z,38.78
2018-09-20T11:10:21.015Z,37.13
2018-09-20T11:11:21.014Z,39.36
2018-09-20T11:12:21.003Z,38.39
2018-09-20T11:13:21.005Z,37.32
2018-09-20T11:14:20.998Z,38.02
2018-09-20T11:15:20.997Z,38.68
2018-09-20T11:16:20.988Z,38.19
2018-09-20T11:17:20.983Z,38.70
2018-09-20T11:18:20.982Z,39.65
2018-09-20T11:19:20.977Z,41.22
2018-09-20T11:20:20.969Z,39.45
2018-09-20T11:21:20.965Z,39.06
2018-09-20T11:22:20.959Z,39.06
2018-09-20T11:23:20.962Z,39.65
2018-09-20T11:24:20.956Z,39.45
2018-09-20T11:25:20.949Z,40.03
2018-09-20T11:26:20.946Z,40.81
2018-09-20T11:27:20.947Z,38.87
2018-09-20T11:28:20.937Z,37.13
2018-09-20T11:29:20.930Z,36.64
2018-09-20T11:30:20.926Z,37.90
2018-09-20T11:31:20.923Z,39.65
2018-09-20T11:32:20.937Z,37.03
2018-09-20T11:33:20.910Z,37.03
2018-09-20T11:34:20.913Z,38.39
2018-09-20T11:35:20.904Z,38.48
2018-09-20T11:36:20.920Z,38.39
2018-09-20T11:37:20.895Z,36.93
2018-09-20T11:38:20.893Z,35.09
2018-09-20T11:39:20.884Z,34.61
2018-09-20T11:40:20.880Z,35.77
2018-09-20T11:41:20.878Z,34.88
2018-09-20T11:42:20.870Z,35.19
2018-09-20T11:43:20.867Z,35.94
2018-09-20T11:44:20.865Z,34.78
2018-09-20T11:45:20.865Z,35.27
2018-09-20T11:46:20.857Z,35.27
2018-09-20T11:47:20.850Z,34.59
2018-09-20T11:48:20.842Z,35.75
2018-09-20T11:49:20.842Z,37.01
2018-09-20T11:50:20.839Z,37.21
2018-09-20T11:51:20.834Z,36.83
2018-09-20T11:52:20.829Z,35.85
2018-09-20T11:53:20.824Z,34.70
2018-09-20T11:54:20.822Z,36.64
2018-09-20T11:55:20.818Z,34.99
2018-09-20T11:56:20.808Z,33.44
2018-09-20T11:57:20.803Z,33.46
2018-09-20T11:58:20.801Z,34.02
2018-09-20T11:59:20.802Z,33.75
2018-09-20T12:00:20.800Z,35.11
2018-09-20T12:01:20.844Z,34.91
2018-09-20T12:02:20.778Z,34.43
2018-09-20T12:03:20.784Z,37.15
2018-09-20T12:04:20.784Z,37.43
2018-09-20T12:05:20.770Z,35.01
2018-09-20T12:06:20.775Z,35.98
2018-09-20T12:07:20.764Z,36.95
2018-09-20T12:08:20.762Z,36.56
2018-09-20T12:09:20.752Z,37.05
2018-09-20T12:10:20.750Z,35.11
2018-09-20T12:11:20.743Z,35.30
2018-09-20T12:12:20.743Z,36.18
2018-09-20T12:13:20.737Z,35.98
2018-09-20T12:14:20.747Z,37.07
2018-09-20T12:15:20.734Z,37.24
2018-09-20T12:16:20.720Z,36.68
2018-09-20T12:17:20.720Z,36.38
2018-09-20T12:18:20.717Z,36.77
2018-09-20T12:19:20.716Z,36.87
2018-09-20T12:20:20.718Z,35.13
2018-09-20T12:21:20.699Z,34.62
2018-09-20T12:22:20.693Z,36.08
2018-09-20T12:23:20.691Z,35.30
2018-09-20T12:24:20.690Z,35.30
2018-09-20T12:25:20.714Z,36.95
2018-09-20T12:26:20.683Z,36.85
2018-09-20T12:27:20.678Z,37.63
2018-09-20T12:28:20.676Z,37.53
2018-09-20T12:29:20.666Z,36.18
2018-09-20T12:30:20.664Z,36.18
2018-09-20T12:31:20.695Z,36.18
2018-09-20T12:32:20.724Z,35.90
2018-09-20T12:33:20.660Z,37.74
2018-09-20T12:34:20.648Z,37.16
2018-09-20T12:35:20.700Z,36.38
2018-09-20T12:36:20.642Z,35.13
2018-09-20T12:37:20.636Z,34.54
2018-09-20T12:38:20.631Z,35.05
2018-09-20T12:39:20.626Z,35.92
2018-09-20T12:40:20.630Z,36.02
2018-09-20T12:41:20.615Z,34.95
2018-09-20T12:42:20.611Z,33.69
2018-09-20T12:43:20.708Z,33.78
2018-09-20T12:44:20.608Z,34.75
2018-09-20T12:45:20.604Z,33.78
2018-09-20T12:46:20.596Z,36.21
2018-09-20T12:47:20.598Z,35.24
2018-09-20T12:48:20.660Z,35.05
2018-09-20T12:49:20.607Z,36.52
2018-09-20T12:50:20.589Z,36.04
2018-09-20T12:51:20.578Z,36.04
2018-09-20T12:52:20.582Z,35.25